createdAt,value
2018-11-12T00:01:20.244Z,86.95
2018-11-12T00:03:55.250Z,87.21
2018-11-12T00:06:29.780Z,88.22
2018-11-12T00:09:05.356Z,88.16
2018-11-12T00:11:39.973Z,87.73
2018-11-12T00:14:14.932Z,87.06
2018-11-12T00:16:49.892Z,86.66
2018-11-12T00:19:24.520Z,86.73
2018-11-12T00:21:59.070Z,86.24
2018-11-12T00:24:34.350Z,86.18
2018-11-12T00:27:08.754Z,87.09
2018-11-12T00:29:43.413Z,86.34
2018-11-12T00:32:18.112Z,85.64
2018-11-12T00:34:53.084Z,85.80
2018-11-12T00:37:27.905Z,85.56
2018-11-12T00:40:03.107Z,85.12
2018-11-12T00:42:38.646Z,84.78
2018-11-12T00:45:13.193Z,85.91
2018-11-12T00:47:50.073Z,86.52
2018-11-12T00:50:24.809Z,85.69
2018-11-12T00:52:59.505Z,84.96
2018-11-12T00:55:34.133Z,84.36
2018-11-12T00:58:09.353Z,84.14
2018-11-12T01:00:44.440Z,84.49
2018-11-12T01:03:18.893Z,84.64
2018-11-12T01:05:53.792Z,84.50
2018-11-12T01:08:28.759Z,84.00
2018-11-12T01:11:03.817Z,84.36
2018-11-12T01:13:38.565Z,84.19
2018-11-12T01:16:13.258Z,84.70
2018-11-12T01:18:48.293Z,84.78
2018-11-12T01:21:22.560Z,85.38
2018-11-12T01:23:56.838Z,85.77
2018-11-12T01:26:31.137Z,85.95
2018-11-12T01:29:06.476Z,85.35
2018-11-12T01:31:41.337Z,84.37
2018-11-12T01:34:16.046Z,84.30
2018-11-12T01:36:50.817Z,84.39
2018-11-12T01:39:25.329Z,84.46
2018-11-12T01:42:00.771Z,84.48
2018-11-12T01:44:35.417Z,85.01
2018-11-12T01:47:09.845Z,84.69
2018-11-12T01:49:44.186Z,85.37
2018-11-12T01:52:18.577Z,85.27
2018-11-12T01:54:52.925Z,85.14
2018-11-12T01:57:27.756Z,85.66
2018-11-12T02:00:02.255Z,85.96
2018-11-12T02:02:37.341Z,86.34
2018-11-12T02:05:12.383Z,86.91
2018-11-12T02:07:47.384Z,87.60
2018-11-12T02:10:21.948Z,87.10
2018-11-12T02:12:56.608Z,86.94
2018-11-12T02:15:31.160Z,86.73
2018-11-12T02:18:05.836Z,86.23
2018-11-12T02:20:40.549Z,86.60
2018-11-12T02:23:15.435Z,85.55
2018-11-12T02:25:50.207Z,85.30
2018-11-12T02:28:24.566Z,85.43
2018-11-12T02:30:59.314Z,85.21
2018-11-12T02:33:33.757Z,85.12
2018-11-12T02:36:08.429Z,84.56
2018-11-12T02:38:43.134Z,85.04
2018-11-12T02:41:17.757Z,84.49
2018-11-12T02:43:52.173Z,84.30
2018-11-12T02:46:26.817Z,84.28
2018-11-12T02:49:01.321Z,84.11
2018-11-12T02:51:35.879Z,84.27
2018-11-12T02:54:10.478Z,84.11
2018-11-12T02:56:45.253Z,85.45
2018-11-12T02:59:20.109Z,85.08
2018-11-12T03:01:54.836Z,85.24
2018-11-12T03:04:29.373Z,85.30
2018-11-12T03:07:04.628Z,85.20
2018-11-12T03:09:38.984Z,85.49
2018-11-12T03:12:14.246Z,85.49
2018-11-12T03:14:48.653Z,85.93
2018-11-12T03:17:23.509Z,86.95
2018-11-12T03:19:58.056Z,87.04
2018-11-12T03:22:32.561Z,86.75
2018-11-12T03:25:08.106Z,86.76
2018-11-12T03:27:43.316Z,86.62
2018-11-12T03:30:23.840Z,86.34
2018-11-12T03:32:58.703Z,86.64
2018-11-12T03:35:33.652Z,86.91
2018-11-12T03:38:08.620Z,85.92
2018-11-12T03:40:43.240Z,85.23
2018-11-12T03:43:17.693Z,84.99
2018-11-12T03:45:52.248Z,84.99
2018-11-12T03:48:26.740Z,85.38
2018-11-12T03:51:01.369Z,85.85
2018-11-12T03:53:36.340Z,85.77
2018-11-12T03:56:11.434Z,85.24
2018-11-12T03:58:47.721Z,85.78
2018-11-12T04:01:22.369Z,86.50
2018-11-12T04:03:57.468Z,86.17
2018-11-12T04:06:31.931Z,86.71
2018-11-12T04:09:07.339Z,86.65
2018-11-12T04:11:46.616Z,86.87
2018-11-12T04:14:21.044Z,86.94
2018-11-12T04:16:56.328Z,87.20
2018-11-12T04:19:30.990Z,86.59
2018-11-12T04:22:05.755Z,85.97
2018-11-12T04:24:40.480Z,85.29
2018-11-12T04:27:14.763Z,84.65
2018-11-12T04:29:49.548Z,84.88
2018-11-12T04:32:23.993Z,85.51
2018-11-12T04:34:58.332Z,85.88
2018-11-12T04:37:32.768Z,86.13
2018-11-12T04:40:12.112Z,86.31
2018-11-12T04:42:47.445Z,86.64
2018-11-12T04:45:23.252Z,86.70
2018-11-12T04:47:58.192Z,85.81
2018-11-12T04:50:32.801Z,85.32
2018-11-12T04:53:07.220Z,86.41
2018-11-12T04:55:41.900Z,86.44
2018-11-12T04:58:16.721Z,85.92
2018-11-12T05:00:51.884Z,85.43
2018-11-12T05:03:26.205Z,84.83
2018-11-12T05:06:01.097Z,84.42
2018-11-12T05:08:35.393Z,84.20
2018-11-12T05:11:09.760Z,84.35
2018-11-12T05:13:44.421Z,84.76
2018-11-12T05:16:19.240Z,85.15
2018-11-12T05:18:53.929Z,85.40
2018-11-12T05:21:28.477Z,86.05
2018-11-12T05:24:03.084Z,86.03
2018-11-12T05:26:37.749Z,85.92
2018-11-12T05:29:12.178Z,86.04
2018-11-12T05:31:46.850Z,85.58
2018-11-12T05:34:21.201Z,85.49
2018-11-12T05:36:55.643Z,85.04
2018-11-12T05:39:30.485Z,84.91
2018-11-12T05:42:05.848Z,85.79
2018-11-12T05:44:40.532Z,86.40
2018-11-12T05:47:15.393Z,86.92
2018-11-12T05:49:50.380Z,87.40
2018-11-12T05:52:24.945Z,87.24
2018-11-12T05:54:59.678Z,87.10
2018-11-12T05:57:34.242Z,87.13
2018-11-12T06:00:10.026Z,86.12
2018-11-12T06:02:44.917Z,85.51
2018-11-12T06:05:19.482Z,85.73
2018-11-12T06:07:54.594Z,86.06
2018-11-12T06:10:30.285Z,86.46
2018-11-12T06:13:04.876Z,86.36
2018-11-12T06:15:39.400Z,86.59
2018-11-12T06:18:14.040Z,86.33
2018-11-12T06:20:48.552Z,86.45
2018-11-12T06:23:23.665Z,85.67
2018-11-12T06:25:58.613Z,85.16
2018-11-12T06:28:33.228Z,84.64
2018-11-12T06:31:08.233Z,84.55
2018-11-12T06:33:42.686Z,84.41
2018-11-12T06:36:17.535Z,84.45
2018-11-12T06:38:52.561Z,84.45
2018-11-12T06:41:27.104Z,84.73
2018-11-12T06:44:01.446Z,84.70
2018-11-12T06:46:36.125Z,86.07
2018-11-12T06:49:10.504Z,85.65
2018-11-12T06:51:45.079Z,84.95
2018-11-12T06:54:19.508Z,85.10
2018-11-12T06:56:53.954Z,85.53
2018-11-12T06:59:28.436Z,85.96
2018-11-12T07:02:02.692Z,86.06
2018-11-12T07:04:37.140Z,86.87
2018-11-12T07:07:11.606Z,86.60
2018-11-12T07:09:46.118Z,86.07
2018-11-12T07:12:20.939Z,86.12
2018-11-12T07:14:55.399Z,87.41
2018-11-12T07:17:29.700Z,87.66
2018-11-12T07:20:04.101Z,87.85
2018-11-12T07:22:38.877Z,87.65
2018-11-12T07:25:14.001Z,87.25
2018-11-12T07:27:48.752Z,86.34
2018-11-12T07:30:25.547Z,86.92
2018-11-12T07:33:00.426Z,87.40
2018-11-12T07:35:34.928Z,87.49
2018-11-12T07:38:09.388Z,87.59
2018-11-12T07:40:44.569Z,87.84
2018-11-12T07:43:18.878Z,87.38
2018-11-12T07:45:53.446Z,87.84
2018-11-12T07:48:27.952Z,88.05
2018-11-12T07:51:02.568Z,88.42
2018-11-12T07:53:37.353Z,88.32
2018-11-12T07:56:11.946Z,88.16
2018-11-12T07:58:46.705Z,87.97
2018-11-12T08:01:21.356Z,87.71
2018-11-12T08:03:55.869Z,87.20
2018-11-12T08:06:30.549Z,87.00
2018-11-12T08:09:06.979Z,86.73
2018-11-12T08:11:42.198Z,86.07
2018-11-12T08:14:17.168Z,85.55
2018-11-12T08:16:52.324Z,84.90
2018-11-12T08:19:26.990Z,84.09
2018-11-12T08:22:02.288Z,83.10
2018-11-12T08:24:36.901Z,82.47
2018-11-12T08:27:11.530Z,81.91
2018-11-12T08:29:46.217Z,81.32
2018-11-12T08:32:21.621Z,81.01
2018-11-12T08:34:56.168Z,80.71
2018-11-12T08:37:31.149Z,79.50
2018-11-12T08:40:07.923Z,78.52
2018-11-12T08:42:43.724Z,78.88
2018-11-12T08:45:18.170Z,78.26
2018-11-12T08:47:54.504Z,77.75
2018-11-12T08:50:29.272Z,76.25
2018-11-12T08:53:04.441Z,75.67
2018-11-12T08:55:39.098Z,73.73
2018-11-12T08:58:14.879Z,74.66
2018-11-12T09:00:48.765Z,73.10
2018-11-12T09:03:23.772Z,74.38
2018-11-12T09:05:58.598Z,73.37
2018-11-12T09:08:33.280Z,72.30
2018-11-12T09:11:08.580Z,71.17
2018-11-12T09:13:44.227Z,71.27
2018-11-12T09:16:19.199Z,70.31
2018-11-12T09:18:53.565Z,69.14
2018-11-12T09:21:28.188Z,66.97
2018-11-12T09:24:02.927Z,68.20
2018-11-12T09:26:38.156Z,67.22
2018-11-12T09:29:12.703Z,68.34
2018-11-12T09:31:47.962Z,68.39
2018-11-12T09:34:22.849Z,67.56
2018-11-12T09:36:57.888Z,67.19
2018-11-12T09:39:32.525Z,67.11
2018-11-12T09:42:07.537Z,67.50
2018-11-12T09:44:42.296Z,68.47
2018-11-12T09:47:16.812Z,67.74
2018-11-12T09:49:51.509Z,67.31
2018-11-12T09:52:26.255Z,64.69
2018-11-12T09:55:00.851Z,65.06
2018-11-12T09:57:35.552Z,65.90
2018-11-12T10:00:13.216Z,66.57
2018-11-12T10:02:50.136Z,64.04
2018-11-12T10:05:24.863Z,65.69
2018-11-12T10:08:04.016Z,67.01
2018-11-12T10:10:43.652Z,65.33
2018-11-12T10:13:22.212Z,65.65
2018-11-12T10:15:58.020Z,66.16
2018-11-12T10:18:29.978Z,66.67
2018-11-12T10:21:04.970Z,66.19
2018-11-12T10:23:39.386Z,65.65
2018-11-12T10:26:14.207Z,66.99
2018-11-12T10:28:48.661Z,65.92
2018-11-12T10:31:23.708Z,66.75
2018-11-12T10:33:58.189Z,65.63
2018-11-12T10:36:33.504Z,66.03
2018-11-12T10:39:09.473Z,65.50
2018-11-12T10:41:43.844Z,65.40
2018-11-12T10:44:18.289Z,66.08
2018-11-12T10:46:53.373Z,65.64
2018-11-12T10:49:27.885Z,66.18
2018-11-12T10:52:02.329Z,64.81
2018-11-12T10:54:36.850Z,65.54
2018-11-12T10:57:11.772Z,64.28
2018-11-12T10:59:46.281Z,64.40
2018-11-12T11:02:26.516Z,64.00
2018-11-12T11:05:01.758Z,64.04
2018-11-12T11:07:36.384Z,64.68
2018-11-12T11:10:10.744Z,63.75
2018-11-12T11:12:47.298Z,62.19
2018-11-12T11:15:22.322Z,62.40
2018-11-12T11:20:40.308Z,63.12
2018-11-12T11:23:14.909Z,61.25
2018-11-12T11:25:49.392Z,62.42
2018-11-12T11:28:24.374Z,59.60
2018-11-12T11:30:59.387Z,58.94
2018-11-12T11:33:34.140Z,58.61
2018-11-12T11:36:08.413Z,55.85
2018-11-12T11:38:42.977Z,55.16
2018-11-12T11:41:17.525Z,53.10
2018-11-12T11:43:51.935Z,52.25
2018-11-12T11:46:26.672Z,51.50
2018-11-12T11:49:01.218Z,49.67
2018-11-12T11:51:36.639Z,49.82
2018-11-12T11:54:11.768Z,48.69
2018-11-12T11:56:46.292Z,48.11
2018-11-12T11:59:20.849Z,48.15
2018-11-12T12:01:55.800Z,48.19
2018-11-12T12:04:30.749Z,48.42
2018-11-12T12:07:05.846Z,48.40
2018-11-12T12:09:40.669Z,48.15
2018-11-12T12:12:15.544Z,48.87
2018-11-12T12:14:50.413Z,48.81
2018-11-12T12:17:24.992Z,46.40
2018-11-12T12:19:59.659Z,46.32
2018-11-12T12:22:34.173Z,46.70
2018-11-12T12:25:10.725Z,47.48
2018-11-12T12:27:46.273Z,47.53
2018-11-12T12:30:23.323Z,48.27
2018-11-12T12:32:58.668Z,47.33
2018-11-12T12:35:33.879Z,48.52
2018-11-12T12:38:08.777Z,47.52
2018-11-12T12:40:43.469Z,46.46
2018-11-12T12:43:17.819Z,46.02
2018-11-12T12:45:52.391Z,45.94
2018-11-12T12:48:27.405Z,44.68
2018-11-12T12:51:01.887Z,43.98
2018-11-12T12:53:36.183Z,43.82
2018-11-12T12:56:10.795Z,42.68
2018-11-12T12:58:46.036Z,42.08
2018-11-12T13:01:20.583Z,42.09
2018-11-12T13:03:55.196Z,42.68
2018-11-12T13:06:29.937Z,43.37
2018-11-12T13:09:07.664Z,43.25
2018-11-12T13:11:42.271Z,42.65
2018-11-12T13:14:17.059Z,43.58
2018-11-12T13:16:52.269Z,43.62
2018-11-12T13:19:26.819Z,42.95
2018-11-12T13:22:01.539Z,42.11
2018-11-12T13:24:36.501Z,42.71
2018-11-12T13:27:11.085Z,42.86
2018-11-12T13:29:45.949Z,43.19
2018-11-12T13:32:20.545Z,42.85
2018-11-12T13:34:54.847Z,44.00
2018-11-12T13:37:29.141Z,43.69
2018-11-12T13:40:04.092Z,43.23
2018-11-12T13:42:38.598Z,44.59
2018-11-12T13:45:13.235Z,45.41
2018-11-12T13:47:48.247Z,46.54
2018-11-12T13:50:25.304Z,46.54
2018-11-12T13:53:01.294Z,48.29
2018-11-12T13:55:35.941Z,48.85
2018-11-12T13:58:10.388Z,48.31
2018-11-12T14:00:45.015Z,48.70
2018-11-12T14:03:19.528Z,56.48
2018-11-12T14:05:54.216Z,59.19
2018-11-12T14:08:29.173Z,61.69
2018-11-12T14:11:03.932Z,63.00
2018-11-12T14:13:38.900Z,63.55
2018-11-12T14:16:13.222Z,64.97
2018-11-12T14:18:48.412Z,65.13
2018-11-12T14:21:23.004Z,65.81
2018-11-12T14:23:57.852Z,66.10
2018-11-12T14:26:32.749Z,66.41
2018-11-12T14:29:08.023Z,67.46
2018-11-12T14:31:42.963Z,67.33
2018-11-12T14:34:17.497Z,67.33
2018-11-12T14:36:52.522Z,67.23
2018-11-12T14:39:26.953Z,68.14
2018-11-12T14:42:02.076Z,67.87
2018-11-12T14:44:37.309Z,67.59
2018-11-12T14:47:11.786Z,67.88
2018-11-12T14:49:46.108Z,69.19
2018-11-12T14:52:21.246Z,69.69
2018-11-12T14:54:55.985Z,70.08
2018-11-12T14:57:31.062Z,70.73
2018-11-12T15:00:15.540Z,70.65
2018-11-12T15:02:51.885Z,71.12
2018-11-12T15:05:26.832Z,71.23
2018-11-12T15:08:01.910Z,71.88
2018-11-12T15:10:36.337Z,71.82
2018-11-12T15:13:10.916Z,71.60
2018-11-12T15:15:45.375Z,72.69
2018-11-12T15:18:20.168Z,72.51
2018-11-12T15:20:54.958Z,72.68
2018-11-12T15:23:30.068Z,73.25
2018-11-12T15:26:05.388Z,72.39
2018-11-12T15:28:39.968Z,72.97
2018-11-12T15:31:14.809Z,73.38
2018-11-12T15:33:49.628Z,73.07
2018-11-12T15:36:24.189Z,74.31
2018-11-12T15:38:58.757Z,73.76
2018-11-12T15:41:33.192Z,74.36
2018-11-12T15:44:08.175Z,75.19
2018-11-12T15:46:42.829Z,75.47
2018-11-12T15:49:17.697Z,75.59
2018-11-12T15:51:52.286Z,75.95
2018-11-12T15:54:27.457Z,77.00
2018-11-12T15:57:01.981Z,76.70
2018-11-12T15:59:37.063Z,76.71
2018-11-12T16:02:11.681Z,77.58
2018-11-12T16:04:46.447Z,77.54
2018-11-12T16:07:20.968Z,77.92
2018-11-12T16:09:55.830Z,77.16
2018-11-12T16:12:30.863Z,77.40
2018-11-12T16:15:05.725Z,77.25
2018-11-12T16:17:40.543Z,77.22
2018-11-12T16:20:22.289Z,77.62
2018-11-12T16:22:58.080Z,78.62
2018-11-12T16:25:33.212Z,78.26
2018-11-12T16:28:07.876Z,79.13
2018-11-12T16:30:42.792Z,79.57
2018-11-12T16:33:17.152Z,80.36
2018-11-12T16:35:51.464Z,80.03
2018-11-12T16:38:25.985Z,80.10
2018-11-12T16:41:03.188Z,79.84
2018-11-12T16:44:45.043Z,79.94
2018-11-12T16:47:19.966Z,79.67
2018-11-12T16:49:54.516Z,79.27
2018-11-12T16:52:29.101Z,79.64
2018-11-12T16:55:04.350Z,81.01
2018-11-12T16:57:38.921Z,80.54
2018-11-12T17:00:15.281Z,80.10
2018-11-12T17:02:49.938Z,79.67
2018-11-12T17:05:25.130Z,80.56
2018-11-12T17:07:59.829Z,81.00
2018-11-12T17:10:44.102Z,80.48
2018-11-12T17:13:21.534Z,80.55
2018-11-12T17:15:57.413Z,82.30
2018-11-12T17:18:31.876Z,82.50
2018-11-12T17:21:07.624Z,82.30
2018-11-12T17:23:42.755Z,82.20
2018-11-12T17:26:17.309Z,82.00
2018-11-12T17:28:51.987Z,82.22
2018-11-12T17:31:26.492Z,81.41
2018-11-12T17:34:01.221Z,81.13
2018-11-12T17:36:35.950Z,81.40
2018-11-12T17:39:11.571Z,81.51
2018-11-12T17:41:46.015Z,81.79
2018-11-12T17:44:20.512Z,81.25
2018-11-12T17:46:54.938Z,80.60
2018-11-12T17:49:29.880Z,81.46
2018-11-12T17:52:04.453Z,82.21
2018-11-12T17:54:39.246Z,82.62
2018-11-12T17:57:13.728Z,82.29
2018-11-12T17:59:48.406Z,82.15
2018-11-12T18:02:23.072Z,81.14
2018-11-12T18:04:58.257Z,81.51
2018-11-12T18:07:33.443Z,81.58
2018-11-12T18:10:11.025Z,81.62
2018-11-12T18:12:46.181Z,80.63
2018-11-12T18:15:21.766Z,81.04
2018-11-12T18:17:56.786Z,81.77
2018-11-12T18:20:31.433Z,81.46
2018-11-12T18:23:06.471Z,81.31
2018-11-12T18:25:41.097Z,81.70
2018-11-12T18:28:15.870Z,81.23
2018-11-12T18:30:50.561Z,80.53
2018-11-12T18:33:25.021Z,80.66
2018-11-12T18:35:59.666Z,80.60
2018-11-12T18:38:34.082Z,81.19
2018-11-12T18:41:08.380Z,82.01
2018-11-12T18:43:43.144Z,82.24
2018-11-12T18:46:18.125Z,82.07
2018-11-12T18:48:53.128Z,83.05
2018-11-12T18:51:28.010Z,84.41
2018-11-12T18:54:02.390Z,85.26
2018-11-12T18:56:37.097Z,84.66
2018-11-12T18:59:11.697Z,84.46
2018-11-12T19:01:46.599Z,84.75
2018-11-12T19:04:21.133Z,84.94
2018-11-12T19:06:55.713Z,84.74
2018-11-12T19:09:30.055Z,84.92
2018-11-12T19:12:05.076Z,84.06
2018-11-12T19:14:39.441Z,83.07
2018-11-12T19:17:15.467Z,82.78
2018-11-12T19:19:49.824Z,82.06
2018-11-12T19:22:25.487Z,81.75
2018-11-12T19:24:59.812Z,81.96
2018-11-12T19:27:34.220Z,82.27
2018-11-12T19:30:11.148Z,82.42
2018-11-12T19:32:47.071Z,82.99
2018-11-12T19:35:23.225Z,83.30
2018-11-12T19:37:58.569Z,82.74
2018-11-12T19:40:33.627Z,82.86
2018-11-12T19:43:08.698Z,82.26
2018-11-12T19:45:58.222Z,82.39
2018-11-12T19:48:33.736Z,82.64
2018-11-12T19:51:09.464Z,81.94
2018-11-12T19:53:44.080Z,82.60
2018-11-12T19:56:18.485Z,82.63
2018-11-12T19:58:53.133Z,82.68
2018-11-12T20:01:28.249Z,82.39
2018-11-12T20:04:03.067Z,83.27
2018-11-12T20:06:38.053Z,83.92
2018-11-12T20:09:13.372Z,83.28
2018-11-12T20:11:47.908Z,83.61
2018-11-12T20:14:22.597Z,84.82
2018-11-12T20:16:57.144Z,85.95
2018-11-12T20:19:32.109Z,86.22
2018-11-12T20:22:06.884Z,86.46
2018-11-12T20:24:42.717Z,86.88
2018-11-12T20:27:17.073Z,86.45
2018-11-12T20:29:51.660Z,86.14
2018-11-12T20:32:26.282Z,85.88
2018-11-12T20:35:01.100Z,84.74
2018-11-12T20:37:36.577Z,84.68
2018-11-12T20:40:14.222Z,84.13
2018-11-12T20:42:49.684Z,84.11
2018-11-12T20:45:24.837Z,83.64
2018-11-12T20:48:00.224Z,83.27
2018-11-12T20:50:34.948Z,82.84
2018-11-12T20:53:09.723Z,83.08
2018-11-12T20:55:44.143Z,84.52
2018-11-12T20:58:18.825Z,85.11
2018-11-12T21:00:55.425Z,86.19
2018-11-12T21:03:30.200Z,86.14
2018-11-12T21:06:06.958Z,86.33
2018-11-12T21:08:41.356Z,85.89
2018-11-12T21:11:16.167Z,85.26
2018-11-12T21:13:50.742Z,85.15
2018-11-12T21:16:25.446Z,85.30
2018-11-12T21:18:59.797Z,85.42
2018-11-12T21:21:34.249Z,86.11
2018-11-12T21:24:09.412Z,85.82
2018-11-12T21:26:43.849Z,85.72
2018-11-12T21:29:18.289Z,85.92
2018-11-12T21:31:53.976Z,86.18
2018-11-12T21:34:28.494Z,86.14
2018-11-12T21:37:03.497Z,86.44
2018-11-12T21:39:38.209Z,85.97
2018-11-12T21:42:12.756Z,85.83
2018-11-12T21:44:47.253Z,85.90
2018-11-12T21:47:21.635Z,86.08
2018-11-12T21:49:56.097Z,85.97
2018-11-12T21:52:31.214Z,86.06
2018-11-12T21:55:05.988Z,86.06
2018-11-12T21:57:41.717Z,86.03
2018-11-12T22:00:21.956Z,85.81
2018-11-12T22:03:00.889Z,84.77
2018-11-12T22:05:35.841Z,84.09
2018-11-12T22:08:10.556Z,85.25
2018-11-12T22:10:44.862Z,86.32
2018-11-12T22:13:19.276Z,86.58
2018-11-12T22:15:54.045Z,86.08
2018-11-12T22:18:28.563Z,85.23
2018-11-12T22:21:03.738Z,84.86
2018-11-12T22:23:38.946Z,85.50
2018-11-12T22:26:13.365Z,85.61
2018-11-12T22:28:48.087Z,85.32
2018-11-12T22:31:22.877Z,84.34
2018-11-12T22:33:57.307Z,84.01
2018-11-12T22:36:31.824Z,84.14
2018-11-12T22:39:08.188Z,83.90
2018-11-12T22:41:42.467Z,83.26
2018-11-12T22:44:17.181Z,83.52
2018-11-12T22:46:51.500Z,84.75
2018-11-12T22:49:26.264Z,85.02
2018-11-12T22:52:00.756Z,84.99
2018-11-12T22:54:35.166Z,85.17
2018-11-12T22:57:09.930Z,85.38
2018-11-12T22:59:44.458Z,86.07
2018-11-12T23:02:19.820Z,86.05
2018-11-12T23:04:54.436Z,85.47
2018-11-12T23:07:29.044Z,84.19
2018-11-12T23:10:04.008Z,83.97
2018-11-12T23:12:39.259Z,84.52
2018-11-12T23:15:18.311Z,85.29
2018-11-12T23:17:52.744Z,84.91
2018-11-12T23:20:28.552Z,85.19
2018-11-12T23:23:03.155Z,84.60
2018-11-12T23:25:37.924Z,83.60
2018-11-12T23:28:12.668Z,83.93
2018-11-12T23:30:47.365Z,83.75
2018-11-12T23:33:21.807Z,83.34
2018-11-12T23:35:56.110Z,83.24
2018-11-12T23:38:31.109Z,83.01
2018-11-12T23:41:05.732Z,83.18
2018-11-12T23:43:40.227Z,83.53
2018-11-12T23:46:15.042Z,83.40
2018-11-12T23:48:49.917Z,83.61
2018-11-12T23:51:24.344Z,83.56
2018-11-12T23:53:59.105Z,83.51
2018-11-12T23:56:33.689Z,84.56
2018-11-12T23:59:08.553Z,84.78
